Time;durP1;ratioP1;P1;durP2;ratioP2;P2;SDS_P1;SDS_P2;PMS_P1;PMS_P2;Temp;Humidity;BMP_temperature;BMP_pressure;BME280_temperature;BME280_humidity;BME280_pressure;Samples;Min_cycle;Max_cycle;Signal;HPM_P1;HPM_P2
2022/06/28 00:02:04;;;;;;;10.73;9.75;;;21.30;99.90;;;;;;5073502;28;20914;-85
2022/06/28 00:04:29;;;;;;;11.50;10.40;;;21.30;99.90;;;;;;5072969;28;20423;-83
2022/06/28 00:06:57;;;;;;;11.57;10.50;;;21.30;99.90;;;;;;5074763;28;20382;-85
2022/06/28 00:09:22;;;;;;;11.70;10.60;;;21.10;99.90;;;;;;5083249;28;20387;-83
2022/06/28 00:11:49;;;;;;;12.25;11.13;;;21.00;99.90;;;;;;5091693;28;20372;-84
2022/06/28 00:16:59;;;;;;;14.07;12.88;;;20.90;99.90;;;;;;5093571;28;20881;-82
2022/06/28 00:19:25;;;;;;;15.70;14.30;;;20.80;99.90;;;;;;5091848;28;20426;-84
2022/06/28 00:21:51;;;;;;;14.20;12.98;;;20.80;99.90;;;;;;5092074;28;20388;-84
2022/06/28 00:24:16;;;;;;;14.90;13.70;;;20.70;99.90;;;;;;5093176;28;20396;-84
2022/06/28 00:26:43;;;;;;;15.77;14.57;;;20.70;99.90;;;;;;5094302;28;20514;-84
2022/06/28 00:29:09;;;;;;;15.07;13.80;;;20.60;99.90;;;;;;5091177;28;20530;-85
2022/06/28 00:31:34;;;;;;;15.60;14.30;;;20.60;99.90;;;;;;5093500;28;20421;-83
2022/06/28 00:34:01;;;;;;;15.10;13.90;;;20.50;99.90;;;;;;5093259;28;20704;-83
2022/06/28 00:36:27;;;;;;;15.57;14.23;;;20.50;99.90;;;;;;5093099;28;20813;-83
2022/06/28 00:38:52;;;;;;;15.87;14.57;;;20.50;99.90;;;;;;5094018;28;20379;-83
2022/06/28 00:41:19;;;;;;;16.05;14.75;;;20.50;99.90;;;;;;5075059;28;20379;-85
2022/06/28 00:43:46;;;;;;;16.98;15.50;;;20.40;99.90;;;;;;5072280;28;20863;-83
2022/06/28 00:46:12;;;;;;;16.20;14.68;;;20.40;99.90;;;;;;5074383;28;20392;-83
2022/06/28 00:48:38;;;;;;;15.40;14.13;;;20.50;99.90;;;;;;5074216;28;20940;-83
2022/06/28 00:51:04;;;;;;;16.15;14.75;;;20.40;99.90;;;;;;5091667;28;20379;-83
2022/06/28 00:53:30;;;;;;;16.02;14.63;;;20.30;99.90;;;;;;5092111;28;20377;-85
2022/06/28 00:55:56;;;;;;;16.13;14.83;;;20.30;99.90;;;;;;5092936;28;20374;-83
2022/06/28 00:58:22;;;;;;;15.55;14.25;;;20.20;99.90;;;;;;5089729;28;20409;-82
2022/06/28 01:00:49;;;;;;;17.30;15.80;;;20.10;99.90;;;;;;5073630;28;20397;-83
2022/06/28 01:03:20;;;;;;;17.57;15.97;;;20.00;99.90;;;;;;5072747;28;20457;-84
2022/06/28 01:05:47;;;;;;;17.83;16.33;;;20.00;99.90;;;;;;5073320;28;20398;-86
2022/06/28 01:08:14;;;;;;;17.52;16.02;;;19.90;99.90;;;;;;5074423;28;20791;-85
2022/06/28 01:10:41;;;;;;;17.58;16.08;;;19.90;99.90;;;;;;5092831;28;20433;-81
2022/06/28 01:13:08;;;;;;;17.98;16.27;;;19.90;99.90;;;;;;5090869;28;20981;-85
2022/06/28 01:15:34;;;;;;;18.55;16.75;;;19.90;99.90;;;;;;5087125;28;20908;-83
2022/06/28 01:18:01;;;;;;;17.90;16.33;;;20.00;99.90;;;;;;5073583;28;20433;-83
2022/06/28 01:20:27;;;;;;;18.63;17.00;;;19.90;99.90;;;;;;5071059;28;20891;-83
2022/06/28 01:22:54;;;;;;;18.92;17.33;;;19.80;99.90;;;;;;5071581;28;20439;-83
2022/06/28 01:25:22;;;;;;;18.42;16.92;;;19.80;99.90;;;;;;5071426;28;20402;-82
2022/06/28 01:27:48;;;;;;;16.77;15.20;;;19.70;99.90;;;;;;5072549;28;20966;-84
2022/06/28 01:30:14;;;;;;;16.88;15.38;;;19.70;99.90;;;;;;5070735;28;20398;-83
2022/06/28 01:32:40;;;;;;;16.10;14.80;;;19.70;99.90;;;;;;5071985;28;20741;-84
2022/06/28 01:35:07;;;;;;;17.83;16.33;;;19.70;99.90;;;;;;5072703;28;20466;-83
2022/06/28 01:37:33;;;;;;;17.70;16.10;;;19.60;99.90;;;;;;5071299;28;20374;-83
2022/06/28 01:40:00;;;;;;;16.98;15.55;;;19.60;99.90;;;;;;5087778;28;20372;-83
2022/06/28 01:42:28;;;;;;;16.60;15.20;;;19.60;99.90;;;;;;5091579;28;20387;-82
2022/06/28 01:44:55;;;;;;;16.67;15.18;;;19.50;99.90;;;;;;5091605;28;20439;-84
2022/06/28 01:47:23;;;;;;;16.70;15.20;;;19.50;99.90;;;;;;5092760;28;20365;-82
2022/06/28 01:49:49;;;;;;;16.85;15.35;;;19.50;99.90;;;;;;5092153;28;20384;-84
2022/06/28 01:52:16;;;;;;;17.42;15.80;;;19.40;99.90;;;;;;5092761;28;20383;-81
2022/06/28 01:54:42;;;;;;;16.10;14.60;;;19.40;99.90;;;;;;5091700;28;20379;-85
2022/06/28 01:57:07;;;;;;;16.60;15.15;;;19.40;99.90;;;;;;5093532;28;20868;-83
2022/06/28 01:59:36;;;;;;;15.85;14.55;;;19.40;99.90;;;;;;5092856;28;20904;-82
2022/06/28 02:02:02;;;;;;;16.42;15.02;;;19.40;99.90;;;;;;5091409;28;20386;-83
2022/06/28 02:04:29;;;;;;;15.33;13.93;;;19.30;99.90;;;;;;5090861;28;20411;-83
2022/06/28 02:06:55;;;;;;;14.93;13.67;;;19.30;99.90;;;;;;5091914;28;20396;-82
2022/06/28 02:09:20;;;;;;;15.03;13.73;;;19.20;99.90;;;;;;5092815;28;20446;-82
2022/06/28 02:11:47;;;;;;;14.98;13.68;;;19.20;99.90;;;;;;5092576;28;20450;-82
2022/06/28 02:14:12;;;;;;;14.73;13.43;;;19.20;99.90;;;;;;5092278;28;20859;-85
2022/06/28 02:16:38;;;;;;;13.80;12.60;;;19.10;99.90;;;;;;5091546;28;20411;-84
2022/06/28 02:19:04;;;;;;;13.05;11.85;;;19.20;99.90;;;;;;5092341;28;20377;-83
2022/06/28 02:21:43;;;;;;;12.93;11.63;;;19.00;99.90;;;;;;5092227;28;20412;-84
2022/06/28 02:24:09;;;;;;;11.02;10.13;;;19.00;99.90;;;;;;5092111;28;20398;-84
2022/06/28 02:26:35;;;;;;;11.32;10.32;;;19.00;99.90;;;;;;5090234;28;20386;-82
2022/06/28 02:29:03;;;;;;;9.35;8.55;;;19.00;99.90;;;;;;5091861;28;20429;-83
2022/06/28 02:31:29;;;;;;;9.10;8.20;;;19.10;99.90;;;;;;5091184;28;20400;-84
2022/06/28 02:33:56;;;;;;;8.88;8.07;;;19.10;99.90;;;;;;5090799;28;20766;-85
2022/06/28 02:41:45;;;;;;;8.50;7.70;;;18.90;99.90;;;;;;5088294;28;20396;-84
2022/06/28 02:44:11;;;;;;;8.50;7.70;;;18.90;99.90;;;;;;5077642;28;20399;-85
2022/06/28 02:46:36;;;;;;;7.93;7.20;;;18.90;99.90;;;;;;5090871;28;20437;-82
2022/06/28 02:49:02;;;;;;;8.30;7.50;;;19.00;99.90;;;;;;5090894;28;20384;-82
2022/06/28 02:51:28;;;;;;;8.32;7.60;;;19.00;99.90;;;;;;5090320;28;20373;-84
2022/06/28 02:53:54;;;;;;;7.60;6.90;;;18.90;99.90;;;;;;5090802;28;20369;-83
2022/06/28 02:56:20;;;;;;;9.38;7.38;;;18.90;99.90;;;;;;5089224;28;20376;-84
2022/06/28 02:58:46;;;;;;;7.93;7.20;;;18.90;99.90;;;;;;5090472;28;20530;-83
2022/06/28 03:01:12;;;;;;;7.75;7.03;;;18.80;99.90;;;;;;5090154;28;20478;-83
2022/06/28 03:03:37;;;;;;;7.93;7.23;;;18.80;99.90;;;;;;5090648;28;20396;-84
2022/06/28 03:06:04;;;;;;;7.50;6.80;;;18.80;99.90;;;;;;5090494;28;20379;-85
2022/06/28 03:08:29;;;;;;;7.70;7.03;;;18.70;99.90;;;;;;5082793;28;20392;-83
2022/06/28 03:10:55;;;;;;;7.67;6.87;;;18.90;99.90;;;;;;5082837;28;20372;-84
2022/06/28 03:13:21;;;;;;;8.52;7.22;;;18.80;99.90;;;;;;5073777;28;20377;-85
2022/06/28 03:15:47;;;;;;;7.10;6.45;;;18.80;99.90;;;;;;5069070;28;20389;-83
2022/06/28 03:18:13;;;;;;;7.90;7.10;;;18.80;99.90;;;;;;5071228;28;20382;-85
2022/06/28 03:20:39;;;;;;;7.97;7.17;;;18.80;99.90;;;;;;5070855;28;20849;-83
2022/06/28 03:23:04;;;;;;;8.15;6.45;;;18.80;99.90;;;;;;5069919;28;20474;-83
2022/06/28 03:25:30;;;;;;;7.07;6.47;;;18.80;99.90;;;;;;5076010;28;20464;-81
2022/06/28 03:27:56;;;;;;;8.10;7.30;;;18.90;99.90;;;;;;5070905;28;20810;-83
2022/06/28 03:30:21;;;;;;;7.20;6.50;;;18.80;99.90;;;;;;5071519;28;20378;-82
2022/06/28 03:32:47;;;;;;;7.38;6.32;;;18.80;99.90;;;;;;5071498;28;20402;-85
2022/06/28 03:35:13;;;;;;;7.70;7.00;;;18.80;99.90;;;;;;5069453;28;20382;-82
2022/06/28 03:37:39;;;;;;;7.03;6.37;;;18.80;99.90;;;;;;5071730;28;20381;-84
2022/06/28 03:40:05;;;;;;;7.20;6.50;;;18.80;99.90;;;;;;5087260;28;20376;-84
2022/06/28 03:42:31;;;;;;;6.90;6.30;;;18.80;99.90;;;;;;5089071;28;20414;-85
2022/06/28 03:44:57;;;;;;;7.38;6.65;;;18.70;99.90;;;;;;5090433;28;20474;-84
2022/06/28 03:47:22;;;;;;;7.10;6.50;;;18.70;99.90;;;;;;5090124;28;20388;-83
2022/06/28 03:49:49;;;;;;;7.75;7.05;;;18.70;99.90;;;;;;5090254;28;20383;-84
2022/06/28 03:52:15;;;;;;;8.00;7.20;;;18.70;99.90;;;;;;5089210;28;20376;-84
2022/06/28 03:54:41;;;;;;;7.72;6.93;;;18.70;99.90;;;;;;5090766;28;20878;-83
2022/06/28 03:57:06;;;;;;;7.50;6.80;;;18.70;99.90;;;;;;5088730;28;20376;-84
2022/06/28 03:59:32;;;;;;;7.68;6.95;;;18.70;99.90;;;;;;5090462;28;20376;-82
2022/06/28 04:01:58;;;;;;;8.60;7.80;;;18.70;99.90;;;;;;5090337;28;20396;-83
2022/06/28 04:04:24;;;;;;;7.75;7.15;;;18.60;99.90;;;;;;5092188;28;20396;-82
2022/06/28 04:06:50;;;;;;;7.60;6.90;;;18.70;99.90;;;;;;5094233;28;20377;-82
2022/06/28 04:09:17;;;;;;;7.97;7.27;;;18.70;99.90;;;;;;5093781;28;20376;-84
2022/06/28 04:11:43;;;;;;;8.88;7.97;;;18.80;99.90;;;;;;5092142;28;20376;-82
2022/06/28 04:14:13;;;;;;;8.77;7.88;;;18.80;99.90;;;;;;5092220;28;20924;-82
2022/06/28 04:16:40;;;;;;;8.65;7.95;;;18.80;99.90;;;;;;5093668;28;20459;-82
2022/06/28 04:19:09;;;;;;;8.30;7.60;;;18.80;99.90;;;;;;5085987;28;20433;-83
2022/06/28 04:21:34;;;;;;;8.80;8.00;;;18.70;99.90;;;;;;5073336;28;20382;-84
2022/06/28 04:24:00;;;;;;;7.63;7.03;;;18.70;99.90;;;;;;5073944;28;20396;-84
2022/06/28 04:26:26;;;;;;;8.82;7.93;;;18.80;99.90;;;;;;5072644;28;20386;-85
2022/06/28 04:28:51;;;;;;;8.90;8.07;;;18.70;99.90;;;;;;5072547;28;20393;-84
2022/06/28 04:31:17;;;;;;;8.48;7.78;;;18.60;99.90;;;;;;5073657;28;20773;-82
2022/06/28 04:33:43;;;;;;;8.68;7.85;;;18.60;99.90;;;;;;5074196;28;20436;-82
2022/06/28 04:36:09;;;;;;;9.30;8.50;;;18.60;99.90;;;;;;5073050;28;20386;-82
2022/06/28 04:38:35;;;;;;;8.88;8.07;;;18.60;99.90;;;;;;5076225;28;20402;-82
2022/06/28 04:41:01;;;;;;;8.70;8.00;;;18.60;99.90;;;;;;5093172;28;20384;-85
2022/06/28 04:43:27;;;;;;;9.10;8.23;;;18.60;99.90;;;;;;5093041;28;20811;-82
2022/06/28 04:45:52;;;;;;;8.65;7.95;;;18.60;99.90;;;;;;5093795;28;20464;-82
2022/06/28 04:48:18;;;;;;;8.90;8.20;;;18.60;99.90;;;;;;5091889;28;20973;-83
2022/06/28 04:50:44;;;;;;;8.83;8.13;;;18.50;99.90;;;;;;5092429;28;20452;-83
2022/06/28 04:53:09;;;;;;;9.13;8.38;;;18.50;99.90;;;;;;5092562;28;20380;-83
2022/06/28 04:55:36;;;;;;;9.43;8.50;;;18.50;99.90;;;;;;5091606;28;20420;-80
2022/06/28 04:58:01;;;;;;;9.20;8.40;;;18.40;99.90;;;;;;5091179;28;20403;-81
2022/06/28 05:00:29;;;;;;;9.27;8.57;;;18.40;99.90;;;;;;5092181;28;20734;-82
2022/06/28 05:02:56;;;;;;;10.03;9.07;;;18.30;99.90;;;;;;5091007;28;20403;-81
2022/06/28 05:05:21;;;;;;;9.35;8.50;;;18.20;99.90;;;;;;5091924;28;20467;-82
2022/06/28 05:07:47;;;;;;;9.90;9.00;;;18.20;99.90;;;;;;5091554;28;20471;-83
2022/06/28 05:10:13;;;;;;;10.77;9.77;;;18.30;99.90;;;;;;5091588;28;20380;-84
2022/06/28 05:12:39;;;;;;;10.15;9.35;;;18.20;99.90;;;;;;5091954;28;20376;-83
2022/06/28 05:15:05;;;;;;;10.73;9.73;;;18.30;99.90;;;;;;5091166;28;20408;-82
2022/06/28 05:17:31;;;;;;;10.43;9.53;;;18.30;99.90;;;;;;5090520;28;20392;-82
2022/06/28 05:19:56;;;;;;;10.52;9.52;;;18.20;99.90;;;;;;5091021;28;20376;-82
2022/06/28 05:22:22;;;;;;;10.70;9.80;;;18.20;99.90;;;;;;5092936;28;20875;-82
2022/06/28 05:24:48;;;;;;;10.07;9.27;;;18.20;99.90;;;;;;5090186;28;20404;-82
2022/06/28 05:27:14;;;;;;;11.05;10.15;;;18.30;99.90;;;;;;5071652;28;20404;-85
2022/06/28 05:29:39;;;;;;;9.50;8.68;;;18.30;99.90;;;;;;5087215;28;20389;-80
2022/06/28 05:32:05;;;;;;;9.70;8.90;;;18.40;99.90;;;;;;5090743;28;20389;-81
2022/06/28 05:34:31;;;;;;;9.93;8.93;;;18.30;99.90;;;;;;5091192;28;20396;-82
2022/06/28 05:36:57;;;;;;;9.20;8.40;;;18.30;99.90;;;;;;5090742;28;20377;-85
2022/06/28 05:39:23;;;;;;;10.07;9.27;;;18.30;99.90;;;;;;5091958;28;20399;-81
2022/06/28 05:41:48;;;;;;;8.82;8.02;;;18.30;99.90;;;;;;5091697;28;20444;-81
2022/06/28 05:44:15;;;;;;;8.80;8.00;;;18.40;99.90;;;;;;5090448;28;20435;-84
2022/06/28 05:46:41;;;;;;;8.57;7.78;;;18.50;99.90;;;;;;5089984;28;20392;-82
2022/06/28 05:49:08;;;;;;;7.82;7.22;;;18.70;99.90;;;;;;5092521;28;20384;-84
2022/06/28 05:51:34;;;;;;;8.18;7.47;;;18.90;99.90;;;;;;5090938;28;20487;-83
2022/06/28 05:53:59;;;;;;;8.23;7.43;;;19.00;99.90;;;;;;5091020;28;20918;-82
2022/06/28 05:56:25;;;;;;;8.02;7.32;;;19.30;99.90;;;;;;5090819;28;20375;-83
2022/06/28 05:58:51;;;;;;;7.37;6.80;;;19.50;99.90;;;;;;5090910;28;20755;-83
2022/06/28 06:01:16;;;;;;;7.88;7.28;;;19.50;99.90;;;;;;5091009;28;20380;-84
2022/06/28 06:03:42;;;;;;;7.70;7.10;;;19.60;99.90;;;;;;5090715;28;20392;-83
2022/06/28 06:06:08;;;;;;;7.77;7.07;;;19.60;99.90;;;;;;5089166;28;21056;-83
2022/06/28 06:08:35;;;;;;;7.22;6.60;;;19.60;99.90;;;;;;5090712;28;20376;-81
2022/06/28 06:11:07;;;;;;;6.95;6.25;;;19.50;99.90;;;;;;5088562;28;20402;-82
2022/06/28 06:13:36;;;;;;;7.07;6.38;;;19.40;99.90;;;;;;5090341;28;20391;-83
2022/06/28 06:16:03;;;;;;;6.65;6.10;;;19.50;99.90;;;;;;5090544;28;20372;-85
2022/06/28 06:18:29;;;;;;;8.00;7.30;;;19.60;99.90;;;;;;5075230;28;20382;-83
2022/06/28 06:20:55;;;;;;;7.30;6.40;;;19.70;99.90;;;;;;5081169;28;20396;-83
2022/06/28 06:23:21;;;;;;;6.75;6.03;;;19.90;99.90;;;;;;5072280;28;20410;-84
2022/06/28 06:25:46;;;;;;;5.90;5.40;;;20.10;99.90;;;;;;5069303;28;20417;-84
2022/06/28 06:28:12;;;;;;;6.20;5.70;;;20.50;99.90;;;;;;5069647;28;20381;-83
2022/06/28 06:30:39;;;;;;;5.60;5.20;;;20.60;99.90;;;;;;5069410;28;20410;-85
2022/06/28 06:33:05;;;;;;;5.55;5.05;;;20.50;99.90;;;;;;5070341;28;20397;-86
2022/06/28 06:35:31;;;;;;;5.40;4.90;;;20.60;99.90;;;;;;5071116;28;20374;-83
2022/06/28 06:38:00;;;;;;;5.93;5.43;;;20.70;99.90;;;;;;5071569;28;20748;-84
2022/06/28 06:40:27;;;;;;;5.78;5.28;;;20.90;99.90;;;;;;5090117;28;20380;-84
2022/06/28 06:42:52;;;;;;;7.37;4.80;;;20.80;99.90;;;;;;5090771;28;20386;-85
2022/06/28 06:45:18;;;;;;;5.00;4.47;;;20.70;99.90;;;;;;5089496;28;20396;-82
2022/06/28 06:47:46;;;;;;;4.80;4.40;;;20.90;99.90;;;;;;5090666;28;22291;-85
2022/06/28 06:50:11;;;;;;;4.93;4.53;;;21.30;99.90;;;;;;5086257;28;20429;-84
2022/06/28 06:52:37;;;;;;;5.25;4.53;;;21.70;99.90;;;;;;5070504;28;20451;-85
2022/06/28 06:55:04;;;;;;;4.63;4.07;;;21.60;99.90;;;;;;5071379;28;20859;-86
2022/06/28 06:57:29;;;;;;;4.88;4.47;;;21.60;99.90;;;;;;5072675;28;20379;-85
2022/06/28 06:59:55;;;;;;;4.70;4.30;;;21.60;99.90;;;;;;5080944;28;20459;-84
2022/06/28 07:02:21;;;;;;;4.20;3.80;;;21.60;99.90;;;;;;5071344;28;20392;-83
2022/06/28 07:04:47;;;;;;;3.87;3.57;;;21.50;99.90;;;;;;5073861;28;20398;-84
2022/06/28 07:07:13;;;;;;;3.65;3.33;;;21.40;99.90;;;;;;5070552;28;20417;-84
2022/06/28 07:09:38;;;;;;;4.00;3.63;;;21.30;99.90;;;;;;5088528;28;20408;-83
2022/06/28 07:12:05;;;;;;;3.33;3.00;;;21.20;99.90;;;;;;5080296;28;20385;-84
2022/06/28 07:14:31;;;;;;;3.00;2.70;;;21.40;99.90;;;;;;5076120;28;20374;-83
2022/06/28 07:16:56;;;;;;;4.70;2.80;;;21.80;99.90;;;;;;5073505;28;20401;-84
2022/06/28 07:19:22;;;;;;;4.37;2.50;;;22.00;99.90;;;;;;5069240;28;20421;-83
2022/06/28 07:21:48;;;;;;;3.10;2.30;;;22.30;99.90;;;;;;5069470;28;20952;-83
2022/06/28 07:24:14;;;;;;;2.70;2.50;;;22.60;99.90;;;;;;5070593;28;20417;-84
2022/06/28 07:26:40;;;;;;;4.90;2.90;;;22.90;99.90;;;;;;5069754;28;20480;-86
2022/06/28 07:29:07;;;;;;;2.70;2.10;;;23.10;99.90;;;;;;5073008;28;20488;-85
2022/06/28 07:31:33;;;;;;;3.38;1.85;;;23.30;99.90;;;;;;5075450;28;20827;-85
2022/06/28 07:33:58;;;;;;;2.70;2.00;;;23.70;99.90;;;;;;5078833;28;20410;-86
2022/06/28 07:36:24;;;;;;;2.50;2.30;;;23.90;99.90;;;;;;5079765;28;20378;-84
2022/06/28 07:38:50;;;;;;;2.23;1.80;;;24.20;99.90;;;;;;5076194;28;20453;-86
2022/06/28 07:41:16;;;;;;;1.90;1.77;;;24.20;99.90;;;;;;5092263;28;20593;-87
2022/06/28 07:43:42;;;;;;;2.58;1.90;;;24.10;99.90;;;;;;5092243;28;20449;-85
2022/06/28 07:46:08;;;;;;;2.30;2.05;;;23.70;99.90;;;;;;5097824;28;20399;-85
2022/06/28 07:48:33;;;;;;;3.90;2.30;;;23.50;99.90;;;;;;5076403;28;20377;-84
2022/06/28 07:53:43;;;;;;;2.42;2.33;;;23.20;99.90;;;;;;5093199;28;20363;-87
2022/06/28 07:56:09;;;;;;;2.70;2.07;;;23.30;99.90;;;;;;5091108;28;20376;-87
2022/06/28 07:58:39;;;;;;;2.00;1.90;;;23.20;99.90;;;;;;5091844;28;20389;-87
2022/06/28 08:01:06;;;;;;;2.10;1.80;;;23.40;99.90;;;;;;5091154;28;20416;-87
2022/06/28 08:03:31;;;;;;;1.90;1.73;;;23.70;99.90;;;;;;5081261;28;20422;-85
2022/06/28 08:05:57;;;;;;;2.10;1.90;;;24.00;99.90;;;;;;5073822;28;20468;-84
2022/06/28 08:08:23;;;;;;;1.85;1.70;;;23.90;99.90;;;;;;5074563;28;20378;-86
2022/06/28 08:10:48;;;;;;;3.10;2.00;;;23.80;99.90;;;;;;5092703;28;20886;-85
2022/06/28 08:13:16;;;;;;;1.70;1.60;;;23.80;99.90;;;;;;5090187;28;20942;-88
2022/06/28 08:15:42;;;;;;;1.60;1.50;;;23.90;99.90;;;;;;5083474;28;20440;-86
2022/06/28 08:18:08;;;;;;;1.70;1.30;;;24.20;99.90;;;;;;5088473;28;20405;-85
2022/06/28 08:20:34;;;;;;;1.60;1.50;;;24.40;99.90;;;;;;5072997;28;20491;-85
2022/06/28 08:23:00;;;;;;;2.83;1.40;;;24.20;99.90;;;;;;5075894;28;20390;-87
2022/06/28 08:25:26;;;;;;;1.60;1.50;;;24.00;99.90;;;;;;5086220;28;20409;-87
2022/06/28 08:27:52;;;;;;;1.58;1.48;;;24.10;99.90;;;;;;5091847;28;20891;-83
2022/06/28 08:30:17;;;;;;;3.07;1.60;;;24.40;99.90;;;;;;5092782;28;20380;-85
2022/06/28 08:32:43;;;;;;;3.00;1.50;;;24.40;99.90;;;;;;5085433;28;20377;-84
2022/06/28 08:35:09;;;;;;;1.75;1.30;;;24.70;99.90;;;;;;5077395;28;20404;-86
2022/06/28 08:37:34;;;;;;;2.67;1.40;;;25.20;99.90;;;;;;5091665;28;20384;-85
2022/06/28 08:40:00;;;;;;;3.40;1.58;;;25.10;99.90;;;;;;5092542;28;20855;-85
2022/06/28 08:42:28;;;;;;;1.88;1.40;;;25.00;99.90;;;;;;5091916;28;20395;-86
2022/06/28 08:44:56;;;;;;;1.40;1.10;;;25.10;99.90;;;;;;5091523;28;20427;-86
2022/06/28 08:47:23;;;;;;;1.90;0.90;;;25.40;99.90;;;;;;5086799;28;20394;-84
2022/06/28 08:49:56;;;;;;;1.02;1.00;;;25.50;99.90;;;;;;5075806;28;20428;-83
2022/06/28 08:52:23;;;;;;;1.48;1.10;;;25.50;99.90;;;;;;5084373;28;20392;-85
2022/06/28 08:54:50;;;;;;;1.63;1.10;;;25.50;99.90;;;;;;5087137;28;20410;-86
2022/06/28 08:57:19;;;;;;;1.70;1.20;;;25.70;99.90;;;;;;5084560;28;20405;-86
2022/06/28 08:59:46;;;;;;;1.50;1.10;;;25.90;99.90;;;;;;5078146;28;20453;-86
2022/06/28 09:02:14;;;;;;;1.90;1.00;;;25.90;99.90;;;;;;5076851;28;20392;-86
2022/06/28 09:04:45;;;;;;;0.80;0.80;;;26.00;99.90;;;;;;5074594;28;20454;-87
2022/06/28 09:07:11;;;;;;;2.30;1.20;;;25.90;99.90;;;;;;5076379;28;20895;-83
2022/06/28 09:09:37;;;;;;;1.17;0.90;;;25.60;99.90;;;;;;5083448;28;20426;-85
2022/06/28 09:12:03;;;;;;;0.98;0.80;;;25.40;99.50;;;;;;5091452;28;20838;-85
2022/06/28 09:14:33;;;;;;;6.05;1.70;;;25.60;99.90;;;;;;5090763;28;20897;-87
2022/06/28 09:17:15;;;;;;;2.67;1.00;;;25.80;99.90;;;;;;5076546;28;20484;-87
2022/06/28 09:19:41;;;;;;;1.17;0.80;;;26.10;99.70;;;;;;5084998;28;20402;-85
2022/06/28 09:22:07;;;;;;;1.07;0.93;;;25.60;98.90;;;;;;5091044;28;20414;-86
2022/06/28 09:24:34;;;;;;;2.03;1.25;;;25.70;99.80;;;;;;5071293;28;20394;-87
2022/06/28 09:27:05;;;;;;;3.50;1.10;;;26.00;99.80;;;;;;5071274;28;20398;-88
2022/06/28 09:29:49;;;;;;;1.08;0.90;;;26.20;99.00;;;;;;5072662;28;20391;-86
2022/06/28 09:32:16;;;;;;;2.63;0.90;;;26.60;99.00;;;;;;5072399;28;20374;-84
2022/06/28 09:35:03;;;;;;;1.35;0.95;;;26.30;97.40;;;;;;5071165;28;20451;-86
2022/06/28 09:37:50;;;;;;;1.83;1.02;;;25.90;99.30;;;;;;5089732;28;20479;-86
2022/06/28 09:40:24;;;;;;;1.35;0.90;;;26.10;99.70;;;;;;5085293;28;20393;-85
2022/06/28 09:43:16;;;;;;;2.17;1.00;;;26.40;99.90;;;;;;5089849;28;20397;-88
2022/06/28 09:45:46;;;;;;;1.10;1.00;;;26.90;98.00;;;;;;5089180;28;20412;-87
2022/06/28 09:48:19;;;;;;;1.10;0.80;;;27.10;97.10;;;;;;5090092;28;20811;-87
2022/06/28 09:50:47;;;;;;;1.40;0.95;;;27.20;96.20;;;;;;5091201;28;20451;-85
2022/06/28 09:53:15;;;;;;;0.95;0.80;;;26.80;96.60;;;;;;5085834;28;20455;-86
2022/06/28 09:55:42;;;;;;;1.77;0.93;;;26.60;96.10;;;;;;5090976;28;20905;-85
2022/06/28 09:58:09;;;;;;;1.77;0.98;;;26.00;99.90;;;;;;5086650;28;21000;-84
2022/06/28 10:00:39;;;;;;;1.20;0.93;;;26.30;98.20;;;;;;5070785;28;20386;-85
2022/06/28 10:03:08;;;;;;;2.20;0.80;;;;;;;;;;5071246;28;20401;-86
2022/06/28 10:05:34;;;;;;;1.77;0.90;;;;;;;;;;5069861;28;20499;-85
2022/06/28 10:08:00;;;;;;;1.35;0.77;;;26.50;99.90;;;;;;5075520;28;20386;-84
2022/06/28 10:10:28;;;;;;;1.30;0.80;;;26.60;94.90;;;;;;5088128;28;20368;-86
2022/06/28 10:16:02;;;;;;;1.50;0.80;;;26.70;96.00;;;;;;5076967;28;20870;-87
2022/06/28 10:18:28;;;;;;;1.52;1.00;;;27.00;95.00;;;;;;5089139;28;20384;-85
2022/06/28 10:20:54;;;;;;;0.95;0.80;;;26.40;94.90;;;;;;5082175;28;20404;-87
2022/06/28 10:23:33;;;;;;;1.60;1.17;;;26.10;94.90;;;;;;5076699;28;20388;-88
2022/06/28 10:26:13;;;;;;;1.92;0.70;;;25.90;94.90;;;;;;5076207;28;20402;-85
2022/06/28 10:29:09;;;;;;;0.90;0.80;;;25.50;95.80;;;;;;5085478;28;20394;-84
2022/06/28 10:31:39;;;;;;;0.90;0.70;;;25.70;96.80;;;;;;5066998;28;20546;-85
2022/06/28 10:34:08;;;;;;;1.60;0.80;;;26.30;96.50;;;;;;5072258;28;20895;-87
2022/06/28 10:36:57;;;;;;;1.75;1.00;;;26.60;95.40;;;;;;5069860;28;20469;-84
2022/06/28 10:39:25;;;;;;;1.90;0.70;;;26.40;95.30;;;;;;5080841;28;20377;-85
2022/06/28 10:41:52;;;;;;;0.82;0.82;;;26.10;94.60;;;;;;5085908;28;20464;-85
2022/06/28 10:44:20;;;;;;;1.20;0.90;;;25.60;94.40;;;;;;5081163;28;20412;-88
2022/06/28 10:47:10;;;;;;;2.10;0.80;;;25.50;96.40;;;;;;5087059;28;20404;-87
2022/06/28 10:49:57;;;;;;;1.70;0.80;;;25.50;94.10;;;;;;5089255;28;20518;-86
2022/06/28 10:52:26;;;;;;;0.93;0.70;;;25.40;95.00;;;;;;5087833;28;20876;-86
2022/06/28 10:54:52;;;;;;;1.00;0.80;;;25.00;95.10;;;;;;5085755;28;20401;-83
2022/06/28 10:57:33;;;;;;;1.03;0.87;;;24.90;94.90;;;;;;5069467;28;20388;-84
2022/06/28 11:00:02;;;;;;;1.02;0.60;;;25.00;96.40;;;;;;5070008;28;20423;-84
2022/06/28 11:02:51;;;;;;;0.75;0.75;;;25.50;94.60;;;;;;5073745;28;20422;-86
2022/06/28 11:05:19;;;;;;;1.65;0.85;;;25.80;95.20;;;;;;5077527;28;20968;-85
2022/06/28 11:07:58;;;;;;;0.90;0.80;;;25.80;94.30;;;;;;5070695;28;20398;-85
2022/06/28 11:10:24;;;;;;;0.68;0.68;;;25.50;95.00;;;;;;5083613;28;20382;-85
2022/06/28 11:12:49;;;;;;;2.17;0.88;;;25.40;94.30;;;;;;5080405;28;20389;-84
2022/06/28 11:15:44;;;;;;;2.30;0.80;;;25.30;94.70;;;;;;5073617;28;20507;-86
2022/06/28 11:18:17;;;;;;;1.20;0.90;;;25.20;93.60;;;;;;5079481;28;20388;-85
2022/06/28 11:20:43;;;;;;;2.35;0.90;;;25.30;94.40;;;;;;5092505;28;20380;-86
2022/06/28 11:23:09;;;;;;;1.70;0.90;;;25.60;93.80;;;;;;5093093;28;21076;-86
2022/06/28 11:28:21;;;;;;;1.00;0.73;;;26.60;93.70;;;;;;5074678;28;20423;-86
2022/06/28 11:30:47;;;;;;;1.07;0.73;;;26.40;92.90;;;;;;5074184;28;20378;-84
2022/06/28 11:33:16;;;;;;;1.83;0.70;;;26.00;93.20;;;;;;5074392;28;20374;-85
2022/06/28 11:35:42;;;;;;;1.80;0.93;;;25.80;92.40;;;;;;5072873;28;20733;-85
2022/06/28 11:38:14;;;;;;;1.88;0.73;;;26.00;99.90;;;;;;5073828;28;20401;-86
2022/06/28 11:40:43;;;;;;;1.15;0.80;;;26.00;99.90;;;;;;5072778;28;21496;-86
2022/06/28 11:43:12;;;;;;;0.70;0.70;;;25.90;94.30;;;;;;5072679;28;20477;-85
2022/06/28 11:45:49;;;;;;;0.68;0.68;;;26.10;91.00;;;;;;5073078;28;20835;-87
2022/06/28 11:48:16;;;;;;;1.23;0.80;;;;;;;;;;5073204;28;20408;-85
2022/06/28 11:50:46;;;;;;;2.30;0.90;;;;;;;;;;5074252;28;20366;-84
2022/06/28 11:53:13;;;;;;;1.90;0.82;;;;;;;;;;5072961;28;20397;-86
2022/06/28 11:55:48;;;;;;;1.40;0.88;;;;;;;;;;5073509;28;20391;-85
2022/06/28 11:58:20;;;;;;;1.35;0.80;;;;;;;;;;5073372;28;20377;-85
2022/06/28 12:01:09;;;;;;;1.30;0.80;;;26.90;86.00;;;;;;5092692;28;20388;-86
2022/06/28 12:03:56;;;;;;;0.95;0.75;;;;;;;;;;5092800;28;20909;-86
2022/06/28 12:06:28;;;;;;;0.82;0.80;;;;;;;;;;5092946;28;20404;-87
2022/06/28 12:08:58;;;;;;;1.38;0.80;;;;;;;;;;5091298;28;20437;-87
2022/06/28 12:11:43;;;;;;;1.35;0.85;;;;;;;;;;5073964;28;20382;-86
2022/06/28 12:14:12;;;;;;;1.47;0.80;;;;;;;;;;5072745;28;20436;-85
2022/06/28 12:16:43;;;;;;;1.38;0.90;;;;;;;;;;5072587;28;20427;-86
2022/06/28 12:19:16;;;;;;;1.20;0.93;;;;;;;;;;5072453;28;20377;-85
2022/06/28 12:21:59;;;;;;;3.47;0.70;;;;;;;;;;5072819;28;20810;-86
2022/06/28 12:24:37;;;;;;;0.93;0.85;;;;;;;;;;5072430;28;20378;-84
2022/06/28 12:27:03;;;;;;;1.83;0.82;;;;;;;;;;5073125;28;20366;-85
2022/06/28 12:29:31;;;;;;;1.00;0.90;;;;;;;;;;5073501;28;20389;-86
2022/06/28 12:31:58;;;;;;;1.10;0.80;;;27.30;99.90;;;;;;5076347;28;20432;-86
2022/06/28 12:34:23;;;;;;;1.50;0.80;;;27.20;99.90;;;;;;5085500;28;20385;-86
2022/06/28 12:36:49;;;;;;;0.73;0.73;;;26.90;99.90;;;;;;5080568;28;20402;-84
2022/06/28 12:39:15;;;;;;;0.90;0.90;;;;;;;;;;5081791;28;20704;-87
2022/06/28 12:41:41;;;;;;;1.20;0.80;;;26.70;82.60;;;;;;5075195;28;20947;-88
2022/06/28 12:44:08;;;;;;;2.20;1.00;;;26.80;87.60;;;;;;5080914;28;20447;-86
2022/06/28 12:46:33;;;;;;;1.83;0.80;;;27.10;83.80;;;;;;5081519;28;20441;-87
2022/06/28 12:48:59;;;;;;;0.60;0.60;;;27.30;84.90;;;;;;5079972;28;20378;-88
2022/06/28 12:51:25;;;;;;;1.38;0.80;;;27.40;84.60;;;;;;5071932;28;20374;-86
2022/06/28 12:53:51;;;;;;;1.10;0.85;;;27.60;81.80;;;;;;5083077;28;20476;-88
2022/06/28 12:56:17;;;;;;;1.10;0.90;;;27.50;81.20;;;;;;5079663;28;20434;-88
2022/06/28 12:58:45;;;;;;;3.00;1.00;;;27.30;81.90;;;;;;5092938;28;20417;-86
2022/06/28 13:01:11;;;;;;;1.27;0.83;;;27.20;80.60;;;;;;5086032;28;20467;-85
2022/06/28 13:03:37;;;;;;;2.00;1.03;;;27.00;79.50;;;;;;5089671;28;20435;-87
2022/06/28 13:06:03;;;;;;;2.35;0.93;;;26.90;82.80;;;;;;5082999;28;20394;-86
2022/06/28 13:08:28;;;;;;;4.83;1.17;;;27.10;81.60;;;;;;5085881;28;20402;-88